Terminal Aerodrome Forecast
Issued by NWS Memphis, TN

Home | Current Version | Previous Version | Text Only | Print | Product List | Glossary On
Versions: 1 2 3 4 5 6 7 8 9 10
000
FTUS44 KMEG 280730 AAA
TAFMKL
TAF AMD
KMKL 280730Z 2808/2906 32011KT 5SM -RA BR OVC004
     FM280900 02010KT 6SM BR VCSH BKN007 OVC020
     FM281800 36006KT P6SM VCSH BKN020 BKN025
     FM290100 01004KT P6SM OVC050=

USA.gov is the U.S. government's official web portal to all federal, state and local government web resources and services.